Time;durP1;ratioP1;P1;durP2;ratioP2;P2;SDS_P1;SDS_P2;PMS_P1;PMS_P2;Temp;Humidity;BMP_temperature;BMP_pressure;BME280_temperature;BME280_humidity;BME280_pressure;Samples;Min_cycle;Max_cycle;Signal;HPM_P1;HPM_P2
2024/01/04 00:02:00;;;;;;;24.13;4.78;;;8.70;99.90;;;8.19;100.00;100547.38;4201354;28;20040;-68
2024/01/04 00:04:01;;;;;;;29.42;5.38;;;8.80;99.90;;;8.33;100.00;100554.84;4201069;28;20044;-68
2024/01/04 00:06:02;;;;;;;25.70;4.35;;;8.90;99.90;;;8.43;100.00;100550.34;4200699;28;20112;-68
2024/01/04 00:08:03;;;;;;;23.13;4.20;;;9.00;99.90;;;8.47;100.00;100538.56;4200379;28;20023;-68
2024/01/04 00:10:05;;;;;;;31.27;6.32;;;9.10;99.90;;;8.47;100.00;100543.81;4200722;28;20113;-68
2024/01/04 00:12:06;;;;;;;35.50;5.45;;;9.10;99.90;;;8.48;100.00;100542.03;4201395;28;20044;-68
2024/01/04 00:14:08;;;;;;;23.63;3.60;;;9.10;99.90;;;8.40;100.00;100544.53;4201340;28;20036;-68
2024/01/04 00:16:11;;;;;;;21.30;3.83;;;9.00;99.90;;;8.30;100.00;100536.75;4200607;28;20028;-68
2024/01/04 00:18:12;;;;;;;22.25;5.00;;;9.00;99.90;;;8.24;100.00;100539.91;4199933;28;20071;-68
2024/01/04 00:20:13;;;;;;;23.60;4.72;;;9.00;99.90;;;8.20;100.00;100554.31;4199771;28;20036;-68
2024/01/04 00:22:14;;;;;;;30.02;4.03;;;8.90;99.90;;;8.15;100.00;100553.94;4199961;28;20119;-68
2024/01/04 00:24:15;;;;;;;26.95;3.95;;;8.80;99.90;;;8.09;100.00;100546.63;4200929;28;20030;-68
2024/01/04 00:26:15;;;;;;;33.72;4.97;;;8.70;99.90;;;8.02;100.00;100543.75;4201632;28;20063;-69
2024/01/04 00:28:16;;;;;;;25.45;4.68;;;8.70;99.90;;;7.96;100.00;100532.97;4200348;28;20025;-68
2024/01/04 00:30:17;;;;;;;29.05;4.70;;;8.70;99.90;;;7.92;100.00;100545.56;4201319;28;20025;-69
2024/01/04 00:32:18;;;;;;;27.80;5.15;;;8.60;99.90;;;7.94;100.00;100554.16;4200174;28;20025;-68
2024/01/04 00:34:19;;;;;;;23.13;4.88;;;8.60;99.90;;;8.03;100.00;100550.66;4201367;28;20078;-68
2024/01/04 00:36:20;;;;;;;24.90;4.93;;;8.60;99.90;;;8.04;100.00;100547.03;4201509;28;20028;-69
2024/01/04 00:38:20;;;;;;;29.45;5.20;;;8.60;99.90;;;8.05;100.00;100561.00;4201396;28;20051;-69
2024/01/04 00:40:21;;;;;;;30.52;4.00;;;8.70;99.90;;;8.03;100.00;100549.81;4201191;28;20028;-69
2024/01/04 00:42:22;;;;;;;28.77;5.20;;;8.70;99.90;;;8.08;100.00;100550.22;4201607;28;20391;-69
2024/01/04 00:44:23;;;;;;;16.63;3.65;;;8.70;99.90;;;8.19;100.00;100542.97;4201535;28;20020;-69
2024/01/04 00:46:24;;;;;;;18.55;4.00;;;8.80;99.90;;;8.26;100.00;100541.41;4201143;28;20017;-69
2024/01/04 00:48:25;;;;;;;26.30;4.55;;;8.90;99.90;;;8.27;100.00;100542.25;4201258;28;20427;-69
2024/01/04 00:50:26;;;;;;;25.05;5.38;;;8.90;99.90;;;8.19;100.00;100531.63;4200277;28;20035;-69
2024/01/04 00:52:26;;;;;;;21.05;4.45;;;8.90;99.90;;;8.21;100.00;100545.47;4201382;28;20039;-68
2024/01/04 00:54:27;;;;;;;25.92;5.30;;;8.90;99.90;;;8.17;100.00;100542.28;4201348;28;20033;-69
2024/01/04 00:56:36;;;;;;;20.63;4.65;;;8.80;99.90;;;8.15;100.00;100559.19;4200086;28;20491;-69
2024/01/04 00:58:37;;;;;;;22.33;3.72;;;8.80;99.90;;;8.09;100.00;100554.50;4201397;28;20021;-68
2024/01/04 01:00:38;;;;;;;27.55;5.53;;;8.70;99.90;;;8.06;100.00;100550.38;4183231;28;20021;-69
2024/01/04 01:02:38;;;;;;;23.85;3.85;;;8.70;99.90;;;8.04;100.00;100547.03;4201265;28;20044;-69
2024/01/04 01:04:39;;;;;;;28.45;4.07;;;8.70;99.90;;;7.99;100.00;100549.28;4200976;28;20103;-68
2024/01/04 01:06:40;;;;;;;27.30;4.30;;;8.70;99.90;;;7.97;100.00;100539.91;4201619;28;20032;-69
2024/01/04 01:08:41;;;;;;;20.00;4.03;;;8.60;99.90;;;8.00;100.00;100550.13;4204116;28;20025;-68
2024/01/04 01:10:42;;;;;;;31.25;4.20;;;8.60;99.90;;;7.97;100.00;100540.72;4203952;28;20045;-69
2024/01/04 01:12:43;;;;;;;23.98;4.25;;;8.60;99.90;;;7.95;100.00;100541.81;4186358;28;20097;-69
2024/01/04 01:14:44;;;;;;;19.42;5.15;;;8.60;99.90;;;7.98;100.00;100538.91;4202684;28;20098;-68
2024/01/04 01:16:44;;;;;;;27.98;5.68;;;8.60;99.90;;;7.98;100.00;100538.91;4205612;28;20079;-68
2024/01/04 01:18:45;;;;;;;23.10;3.53;;;8.60;99.90;;;7.94;100.00;100541.00;4209926;28;20032;-68
2024/01/04 01:20:46;;;;;;;29.33;3.80;;;8.60;99.90;;;8.01;100.00;100541.25;4202673;28;20024;-69
2024/01/04 01:22:47;;;;;;;33.72;3.90;;;8.60;99.90;;;8.00;100.00;100539.59;4204181;28;20020;-68
2024/01/04 01:24:48;;;;;;;22.38;4.65;;;8.70;99.90;;;7.98;100.00;100541.53;4204036;28;20483;-68
2024/01/04 01:26:49;;;;;;;24.65;4.03;;;8.60;99.90;;;8.01;100.00;100549.13;4203994;28;20050;-68
2024/01/04 01:28:49;;;;;;;22.38;4.65;;;8.70;99.90;;;8.02;100.00;100538.47;4203760;28;20051;-68
2024/01/04 01:30:51;;;;;;;26.70;4.00;;;8.70;99.90;;;8.12;100.00;100535.81;4202467;28;20087;-69
2024/01/04 01:32:51;;;;;;;25.45;3.95;;;8.70;99.90;;;8.15;100.00;100535.53;4203913;28;20085;-69
2024/01/04 01:34:54;;;;;;;21.85;4.55;;;8.80;99.90;;;8.21;100.00;100534.94;4203818;28;20032;-69
2024/01/04 01:36:55;;;;;;;23.17;3.55;;;8.80;99.90;;;8.22;100.00;100541.84;4204008;28;20021;-69
2024/01/04 01:38:56;;;;;;;24.77;3.72;;;8.80;99.90;;;8.24;100.00;100539.91;4202651;28;20078;-69
2024/01/04 01:40:56;;;;;;;30.40;5.57;;;8.90;99.90;;;8.21;100.00;100538.38;4203810;28;20372;-68
2024/01/04 01:42:59;;;;;;;27.70;4.53;;;8.90;99.90;;;8.31;100.00;100549.72;4203710;28;20020;-69
2024/01/04 01:45:03;;;;;;;27.38;3.63;;;8.90;99.90;;;8.27;100.00;100543.09;4203601;28;20036;-68
2024/01/04 01:47:04;;;;;;;24.75;3.70;;;8.90;99.90;;;8.28;100.00;100534.25;4202612;28;20075;-68
2024/01/04 01:49:05;;;;;;;24.92;3.50;;;8.90;99.90;;;8.37;100.00;100527.28;4202660;28;20032;-69
2024/01/04 01:51:07;;;;;;;22.85;4.10;;;9.00;99.90;;;8.45;100.00;100535.28;4203637;28;20024;-69
2024/01/04 01:53:08;;;;;;;23.92;3.88;;;9.00;99.90;;;8.53;100.00;100532.72;4203452;28;20028;-68
2024/01/04 01:55:11;;;;;;;19.63;5.05;;;9.20;99.90;;;8.66;100.00;100533.16;4203617;28;20376;-69
2024/01/04 01:57:12;;;;;;;25.40;3.30;;;9.30;99.90;;;8.75;100.00;100537.53;4202376;28;20028;-69
2024/01/04 01:59:13;;;;;;;22.38;3.92;;;9.40;99.90;;;8.83;100.00;100539.44;4203411;28;20413;-69
2024/01/04 02:01:15;;;;;;;13.68;3.22;;;9.40;99.90;;;8.84;100.00;100531.38;4203072;28;20396;-68
2024/01/04 02:03:17;;;;;;;22.67;3.33;;;9.40;99.90;;;8.77;100.00;100540.03;4202266;28;20384;-68
2024/01/04 02:05:18;;;;;;;23.58;3.25;;;9.40;99.90;;;8.67;100.00;100534.84;4202142;28;20084;-69
2024/01/04 02:07:19;;;;;;;20.60;4.15;;;9.30;99.90;;;8.55;100.00;100528.13;4203415;28;20025;-69
2024/01/04 02:09:20;;;;;;;19.20;3.92;;;9.20;99.90;;;8.52;100.00;100546.84;4203033;28;20461;-69
2024/01/04 02:11:22;;;;;;;20.38;3.47;;;9.20;99.90;;;8.45;100.00;100540.53;4203159;28;20033;-68
2024/01/04 02:13:23;;;;;;;18.23;4.20;;;9.10;99.90;;;8.40;100.00;100536.66;4202227;28;20039;-69
2024/01/04 02:15:24;;;;;;;22.10;4.45;;;9.10;99.90;;;8.38;100.00;100544.72;4203171;28;20017;-68
2024/01/04 02:17:25;;;;;;;24.52;3.50;;;9.10;99.90;;;8.37;100.00;100542.22;4202192;28;20024;-69
2024/01/04 02:19:28;;;;;;;21.92;3.55;;;9.00;99.90;;;8.36;100.00;100536.16;4201685;28;20028;-69
2024/01/04 02:21:28;;;;;;;23.00;4.07;;;9.10;99.90;;;8.38;100.00;100536.81;4202125;28;20115;-69
2024/01/04 02:23:29;;;;;;;25.55;4.85;;;9.00;99.90;;;8.42;100.00;100524.22;4202890;28;20479;-68
2024/01/04 02:25:30;;;;;;;23.05;3.78;;;9.10;99.90;;;8.50;100.00;100527.75;4203171;28;20485;-68
2024/01/04 02:27:31;;;;;;;20.08;4.25;;;9.10;99.90;;;8.51;100.00;100529.41;4203050;28;20025;-68
2024/01/04 02:29:32;;;;;;;15.88;3.45;;;9.20;99.90;;;8.55;100.00;100551.78;4202729;28;20020;-68
2024/01/04 02:31:32;;;;;;;22.63;4.78;;;9.20;99.90;;;8.57;100.00;100549.84;4202936;28;20502;-69
2024/01/04 02:33:33;;;;;;;27.95;3.78;;;9.20;99.90;;;8.60;100.00;100541.66;4202850;28;20488;-69
2024/01/04 02:35:34;;;;;;;17.95;3.63;;;9.30;99.90;;;8.65;100.00;100546.47;4201509;28;20412;-69
2024/01/04 02:37:35;;;;;;;24.77;3.42;;;9.30;99.90;;;8.73;100.00;100546.56;4202839;28;20028;-69
2024/01/04 02:39:36;;;;;;;19.48;3.65;;;9.40;99.90;;;8.81;100.00;100546.66;4202749;28;20028;-69
2024/01/04 02:41:38;;;;;;;21.27;3.63;;;9.40;99.90;;;8.88;100.00;100552.97;4202887;28;20027;-69
2024/01/04 02:43:38;;;;;;;20.33;3.95;;;9.50;99.90;;;8.86;100.00;100541.78;4202610;28;20028;-69
2024/01/04 02:45:39;;;;;;;21.20;3.05;;;9.50;99.90;;;8.82;100.00;100543.88;4202373;28;20029;-69
2024/01/04 02:47:41;;;;;;;22.65;4.10;;;9.40;99.90;;;8.71;100.00;100538.84;4202741;28;20032;-69
2024/01/04 02:49:42;;;;;;;17.08;4.70;;;9.40;99.90;;;8.65;100.00;100539.44;4201462;28;20084;-68
2024/01/04 02:51:43;;;;;;;29.83;4.28;;;9.30;99.90;;;8.59;100.00;100537.38;4202734;28;20036;-69
2024/01/04 02:53:44;;;;;;;14.52;3.55;;;9.30;99.90;;;8.56;100.00;100536.84;4202715;28;20036;-68
2024/01/04 02:55:45;;;;;;;21.58;3.90;;;9.20;99.90;;;8.50;100.00;100533.03;4202495;28;20020;-69
2024/01/04 02:57:46;;;;;;;20.42;3.83;;;9.10;99.90;;;8.42;100.00;100526.84;4202585;28;20033;-68
2024/01/04 02:59:47;;;;;;;18.63;4.22;;;9.10;99.90;;;8.36;100.00;100537.94;4202173;28;20041;-69
2024/01/04 03:01:48;;;;;;;22.27;5.00;;;9.00;99.90;;;8.29;100.00;100535.06;4201371;28;20031;-68
2024/01/04 03:03:52;;;;;;;24.25;3.60;;;9.00;99.90;;;8.22;100.00;100531.31;4202555;28;20376;-68
2024/01/04 03:05:54;;;;;;;21.10;3.47;;;8.90;99.90;;;8.14;100.00;100533.88;4202455;28;20081;-69
2024/01/04 03:07:54;;;;;;;19.75;3.65;;;8.80;99.90;;;8.08;100.00;100542.31;4202292;28;20025;-68
2024/01/04 03:09:56;;;;;;;18.98;3.70;;;8.70;99.90;;;8.05;100.00;100534.72;4202259;28;20038;-69
2024/01/04 03:11:57;;;;;;;18.83;2.97;;;8.70;99.90;;;8.05;100.00;100537.38;4201322;28;20043;-68
2024/01/04 03:13:57;;;;;;;21.95;4.05;;;8.70;99.90;;;8.09;100.00;100538.75;4201232;28;20029;-68
2024/01/04 03:15:58;;;;;;;24.80;3.40;;;8.80;99.90;;;8.13;100.00;100550.59;4201562;28;20115;-68
2024/01/04 03:17:59;;;;;;;21.08;3.50;;;8.80;99.90;;;8.16;100.00;100540.63;4202196;28;20449;-69
2024/01/04 03:20:00;;;;;;;13.85;3.30;;;8.80;99.90;;;8.20;100.00;100541.16;4202258;28;20032;-69
2024/01/04 03:22:01;;;;;;;20.27;2.58;;;8.80;99.90;;;8.23;100.00;100540.88;4200980;28;20021;-68
2024/01/04 03:24:02;;;;;;;13.05;2.95;;;8.90;99.90;;;8.22;100.00;100533.97;4201986;28;20036;-68
2024/01/04 03:26:03;;;;;;;15.15;3.20;;;8.80;99.90;;;8.18;100.00;100538.66;4202165;28;20025;-69
2024/01/04 03:28:04;;;;;;;13.65;3.13;;;8.90;99.90;;;8.17;100.00;100541.47;4200976;28;20567;-68
2024/01/04 03:30:07;;;;;;;15.88;3.67;;;8.80;99.90;;;8.13;100.00;100537.47;4200260;28;20083;-68
2024/01/04 03:32:08;;;;;;;20.83;3.93;;;8.80;99.90;;;8.03;100.00;100540.16;4202052;28;20115;-69
2024/01/04 03:34:09;;;;;;;22.98;4.18;;;8.70;99.90;;;8.04;100.00;100535.69;4200838;28;20509;-69
2024/01/04 03:36:12;;;;;;;18.20;2.50;;;8.70;99.90;;;7.99;100.00;100543.19;4202024;28;20037;-68
2024/01/04 03:38:13;;;;;;;17.50;2.85;;;8.60;99.90;;;7.92;100.00;100536.84;4201901;28;20074;-69
2024/01/04 03:40:14;;;;;;;16.23;2.58;;;8.60;99.90;;;7.97;100.00;100539.91;4201860;28;20082;-69
2024/01/04 03:42:15;;;;;;;21.00;3.53;;;8.60;99.90;;;7.99;100.00;100546.66;4200766;28;20040;-68
2024/01/04 03:44:16;;;;;;;25.85;3.92;;;8.60;99.90;;;8.07;100.00;100535.41;4201924;28;20029;-68
2024/01/04 03:46:18;;;;;;;31.00;4.38;;;8.70;99.90;;;8.17;100.00;100544.09;4201590;28;20090;-69
2024/01/04 03:48:19;;;;;;;23.10;4.10;;;8.80;99.90;;;8.23;100.00;100531.19;4201912;28;20024;-68
2024/01/04 03:50:20;;;;;;;20.15;4.32;;;8.80;99.90;;;8.30;100.00;100540.16;4200650;28;20024;-68
2024/01/04 03:52:20;;;;;;;16.42;4.35;;;8.90;99.90;;;8.34;100.00;100531.03;4201939;28;20510;-68
2024/01/04 03:54:22;;;;;;;14.40;3.35;;;9.00;99.90;;;8.43;100.00;100534.56;4200560;28;20036;-68
2024/01/04 03:56:23;;;;;;;20.08;2.95;;;9.00;99.90;;;8.49;100.00;100531.34;4201791;28;20475;-68
2024/01/04 03:58:23;;;;;;;13.57;2.45;;;9.10;99.90;;;8.52;100.00;100533.69;4201787;28;20044;-68
2024/01/04 04:00:24;;;;;;;17.13;2.92;;;9.10;99.90;;;8.58;100.00;100535.72;4201597;28;20035;-69
2024/01/04 04:02:25;;;;;;;21.58;3.58;;;9.20;99.90;;;8.55;100.00;100525.50;4201914;28;20407;-68
2024/01/04 04:04:26;;;;;;;19.13;3.83;;;9.20;99.90;;;8.52;100.00;100517.09;4201640;28;20021;-68
2024/01/04 04:06:27;;;;;;;17.38;2.80;;;9.20;99.90;;;8.50;100.00;100522.50;4201468;28;20594;-69
2024/01/04 04:08:28;;;;;;;14.63;2.72;;;9.20;99.90;;;8.50;100.00;100526.94;4200547;28;20025;-68
2024/01/04 04:10:28;;;;;;;16.92;3.65;;;9.10;99.90;;;8.46;100.00;100509.78;4200288;28;20033;-68
2024/01/04 04:12:29;;;;;;;16.67;2.70;;;9.10;99.90;;;8.43;100.00;100508.28;4201837;28;20040;-68
2024/01/04 04:14:33;;;;;;;18.38;5.18;;;9.10;99.90;;;8.40;100.00;100513.00;4201511;28;20479;-69
2024/01/04 04:16:40;;;;;;;18.13;2.92;;;9.00;99.90;;;8.36;100.00;100504.63;4200672;28;20075;-68
2024/01/04 04:18:41;;;;;;;19.95;3.13;;;9.00;99.90;;;8.30;100.00;100494.69;4200614;28;20047;-70
2024/01/04 04:20:42;;;;;;;16.95;3.95;;;9.00;99.90;;;8.25;100.00;100492.47;4201493;28;20517;-70
2024/01/04 04:22:43;;;;;;;24.77;3.53;;;8.90;99.90;;;8.21;100.00;100485.81;4201437;28;20033;-69
2024/01/04 04:24:44;;;;;;;25.83;3.88;;;8.90;99.90;;;8.18;100.00;100486.13;4201630;28;20040;-69
2024/01/04 04:26:44;;;;;;;17.80;3.55;;;8.90;99.90;;;8.18;100.00;100485.31;4201621;28;20391;-69
2024/01/04 04:28:45;;;;;;;15.90;3.30;;;8.80;99.90;;;8.17;100.00;100483.66;4200238;28;20028;-69
2024/01/04 04:30:46;;;;;;;24.23;4.97;;;8.80;99.90;;;8.16;100.00;100488.09;4201178;28;20039;-69
2024/01/04 04:32:47;;;;;;;21.73;4.28;;;8.80;99.90;;;8.18;100.00;100486.13;4200457;28;20082;-69
2024/01/04 04:34:48;;;;;;;17.77;5.50;;;8.80;99.90;;;8.20;100.00;100486.00;4200379;28;20028;-69
2024/01/04 04:36:49;;;;;;;19.85;4.00;;;8.80;99.90;;;8.19;100.00;100482.53;4201326;28;20446;-68
2024/01/04 04:38:50;;;;;;;19.73;3.17;;;8.80;99.90;;;8.18;100.00;100470.34;4201314;28;20032;-68
2024/01/04 04:40:51;;;;;;;15.15;3.38;;;8.90;99.90;;;8.21;100.00;100471.88;4200300;28;20447;-68
2024/01/04 04:42:52;;;;;;;17.70;3.85;;;8.90;99.90;;;8.24;100.00;100466.34;4203975;28;20024;-69
2024/01/04 04:44:53;;;;;;;15.05;3.00;;;8.90;99.90;;;8.24;100.00;100463.72;4203230;28;20025;-69
2024/01/04 04:46:54;;;;;;;19.25;2.95;;;8.90;99.90;;;8.29;100.00;100462.31;4204430;28;20039;-68
2024/01/04 04:48:56;;;;;;;20.13;3.22;;;8.90;99.90;;;8.32;100.00;100451.50;4203199;28;20024;-69
2024/01/04 04:50:57;;;;;;;15.63;2.90;;;8.90;99.90;;;8.33;100.00;100449.72;4203208;28;20029;-69
2024/01/04 04:52:57;;;;;;;23.95;4.28;;;9.00;99.90;;;8.28;100.00;100441.44;4204516;28;20035;-68
2024/01/04 04:54:58;;;;;;;20.75;3.67;;;8.90;99.90;;;8.30;100.00;100429.78;4203046;28;20082;-68
2024/01/04 04:57:00;;;;;;;26.00;4.25;;;8.90;99.90;;;8.23;100.00;100428.72;4220084;28;20478;-69
2024/01/04 04:59:04;;;;;;;19.80;3.28;;;8.90;99.90;;;8.18;100.00;100438.84;4196150;28;20115;-69
2024/01/04 05:01:04;;;;;;;25.73;2.95;;;8.80;99.90;;;8.08;100.00;100437.25;4203809;28;20023;-69
2024/01/04 05:03:06;;;;;;;16.33;2.90;;;8.70;99.90;;;8.02;100.00;100443.09;4204105;28;20025;-68
2024/01/04 05:05:07;;;;;;;24.60;4.60;;;8.70;99.90;;;7.92;100.00;100437.88;4204294;28;20391;-68
2024/01/04 05:07:08;;;;;;;22.10;3.85;;;8.60;99.90;;;7.87;100.00;100439.31;4204243;28;20032;-69
2024/01/04 05:09:08;;;;;;;29.52;4.68;;;8.50;99.90;;;7.84;100.00;100440.44;4203960;28;20395;-69
2024/01/04 05:11:09;;;;;;;19.80;3.63;;;8.50;99.90;;;7.82;100.00;100451.06;4204234;28;20036;-68
2024/01/04 05:13:10;;;;;;;12.25;2.83;;;8.50;99.90;;;7.77;100.00;100442.78;4204098;28;20072;-69
2024/01/04 05:15:11;;;;;;;22.05;3.63;;;8.50;99.90;;;7.79;100.00;100445.28;4204007;28;20050;-69
2024/01/04 05:17:12;;;;;;;24.33;5.15;;;8.50;99.90;;;7.78;100.00;100447.09;4204122;28;20054;-69
2024/01/04 05:19:13;;;;;;;21.65;3.75;;;8.40;99.90;;;7.74;100.00;100440.47;4203919;28;20051;-69
2024/01/04 05:21:13;;;;;;;15.70;3.83;;;8.40;99.90;;;7.70;100.00;100441.75;4204273;28;20046;-69
2024/01/04 05:23:14;;;;;;;22.35;4.25;;;8.40;99.90;;;7.65;100.00;100446.56;4203047;28;20029;-69
2024/01/04 05:25:15;;;;;;;25.73;5.15;;;8.30;99.90;;;7.61;100.00;100450.47;4219480;28;20027;-69
2024/01/04 05:27:16;;;;;;;18.38;3.65;;;8.20;99.90;;;7.54;100.00;100449.41;4203896;28;20032;-69
2024/01/04 05:29:17;;;;;;;22.10;3.83;;;8.20;99.90;;;7.49;100.00;100450.81;4203866;28;20025;-68
2024/01/04 05:31:20;;;;;;;20.13;3.58;;;8.20;99.90;;;7.44;100.00;100448.59;4204055;28;20032;-68
2024/01/04 05:33:20;;;;;;;30.08;3.35;;;8.10;99.90;;;7.39;100.00;100445.56;4202816;28;20032;-68
2024/01/04 05:35:21;;;;;;;18.88;3.50;;;8.10;99.90;;;7.37;100.00;100447.53;4203759;28;20024;-68
2024/01/04 05:37:22;;;;;;;24.52;4.32;;;8.00;99.90;;;7.30;100.00;100442.97;4204016;28;20050;-68
2024/01/04 05:39:24;;;;;;;16.08;2.90;;;8.00;99.90;;;7.27;100.00;100438.00;4203816;28;20039;-68
2024/01/04 05:41:25;;;;;;;13.90;2.83;;;8.00;99.90;;;7.22;100.00;100428.78;4203816;28;20047;-68
2024/01/04 05:43:27;;;;;;;18.88;3.70;;;7.90;99.90;;;7.19;100.00;100423.81;4203644;28;20032;-69
2024/01/04 05:45:28;;;;;;;17.33;3.72;;;7.90;99.90;;;7.17;100.00;100427.53;4203568;28;20024;-69
2024/01/04 05:47:29;;;;;;;19.63;3.72;;;7.80;99.90;;;7.08;100.00;100413.47;4202642;28;20511;-68
2024/01/04 05:49:30;;;;;;;22.38;3.17;;;7.80;99.90;;;7.08;100.00;100421.34;4203702;28;20028;-69
2024/01/04 05:51:31;;;;;;;28.65;4.57;;;7.80;99.90;;;7.07;100.00;100421.50;4203573;28;20029;-69
2024/01/04 05:53:32;;;;;;;22.55;5.15;;;7.70;99.90;;;7.08;100.00;100418.72;4201871;28;20032;-69
2024/01/04 05:55:32;;;;;;;21.45;4.10;;;7.80;99.90;;;7.12;100.00;100421.91;4203702;28;20027;-68
2024/01/04 05:57:34;;;;;;;21.95;4.30;;;7.80;99.90;;;7.14;100.00;100407.66;4202218;28;20024;-69
2024/01/04 05:59:35;;;;;;;23.50;3.60;;;7.80;99.90;;;7.21;100.00;100419.25;4202110;28;20506;-69
2024/01/04 06:01:38;;;;;;;23.58;4.03;;;7.90;99.90;;;7.27;100.00;100411.78;4203355;28;20032;-69
2024/01/04 06:03:39;;;;;;;24.67;4.22;;;7.90;99.90;;;7.34;100.00;100416.31;4202169;28;20071;-69
2024/01/04 06:05:40;;;;;;;25.52;4.50;;;8.00;99.90;;;7.40;100.00;100414.91;4226409;28;20031;-68
2024/01/04 06:07:41;;;;;;;23.73;4.57;;;8.00;99.90;;;7.45;100.00;100424.00;4199202;28;20017;-68
2024/01/04 06:09:42;;;;;;;29.23;5.07;;;8.10;99.90;;;7.46;100.00;100409.94;4201683;28;20087;-69
2024/01/04 06:11:43;;;;;;;19.40;3.20;;;8.10;99.90;;;7.49;100.00;100404.38;4202295;28;20090;-68
2024/01/04 06:13:43;;;;;;;29.35;4.18;;;8.10;99.90;;;7.49;100.00;100396.53;4203395;28;20032;-68
2024/01/04 06:15:45;;;;;;;25.48;4.18;;;8.10;99.90;;;7.48;100.00;100391.41;4202983;28;20036;-68
2024/01/04 06:17:46;;;;;;;16.45;4.15;;;8.10;99.90;;;7.47;100.00;100392.34;4203248;28;20020;-68
2024/01/04 06:19:47;;;;;;;12.48;3.05;;;8.10;99.90;;;7.41;100.00;100383.28;4203151;28;20040;-68
2024/01/04 06:21:48;;;;;;;20.55;3.25;;;8.10;99.90;;;7.38;100.00;100386.19;4201981;28;20028;-68
2024/01/04 06:23:49;;;;;;;26.42;3.80;;;8.00;99.90;;;7.32;100.00;100391.19;4203221;28;20029;-69
2024/01/04 06:25:50;;;;;;;14.20;3.17;;;8.00;99.90;;;7.25;100.00;100380.44;4202909;28;20372;-69
2024/01/04 06:27:51;;;;;;;23.40;3.85;;;7.90;99.90;;;7.21;100.00;100382.53;4203118;28;20387;-69
2024/01/04 06:29:52;;;;;;;16.73;3.50;;;7.90;99.90;;;7.21;100.00;100371.19;4202835;28;20029;-68
2024/01/04 06:31:53;;;;;;;18.02;3.45;;;7.80;99.90;;;7.20;100.00;100356.44;4203109;28;20036;-69
2024/01/04 06:33:53;;;;;;;11.43;2.47;;;7.80;99.90;;;7.20;100.00;100366.91;4201569;28;20032;-68
2024/01/04 06:35:54;;;;;;;12.60;2.30;;;7.90;99.90;;;7.18;100.00;100367.06;4202846;28;20024;-68
2024/01/04 06:37:55;;;;;;;13.77;3.63;;;7.90;99.90;;;7.20;100.00;100372.16;4202895;28;20086;-68
2024/01/04 06:39:56;;;;;;;14.73;2.83;;;7.90;99.90;;;7.19;100.00;100375.78;4202766;28;20021;-68
2024/01/04 06:41:57;;;;;;;15.38;2.67;;;7.90;99.90;;;7.15;100.00;100363.91;4201663;28;20391;-68
2024/01/04 06:43:58;;;;;;;17.50;3.15;;;7.80;99.90;;;7.15;100.00;100367.38;4201539;28;20024;-69
2024/01/04 06:45:59;;;;;;;21.63;3.92;;;7.80;99.90;;;7.17;100.00;100367.19;4197612;28;20025;-68
2024/01/04 06:48:00;;;;;;;18.27;4.03;;;7.80;99.90;;;7.19;100.00;100363.50;4201645;28;20032;-68
2024/01/04 06:50:01;;;;;;;22.65;3.95;;;7.80;99.90;;;7.24;100.00;100373.53;4201303;28;20020;-68
2024/01/04 06:52:02;;;;;;;28.45;6.15;;;7.90;99.90;;;7.26;100.00;100376.84;4202740;28;20032;-68
2024/01/04 06:54:02;;;;;;;24.48;4.38;;;7.90;99.90;;;7.31;100.00;100374.63;4202558;28;20084;-69
2024/01/04 06:56:04;;;;;;;29.45;4.22;;;8.00;99.90;;;7.31;100.00;100363.31;4201307;28;20423;-68
2024/01/04 06:58:05;;;;;;;29.48;4.32;;;8.00;99.90;;;7.40;100.00;100373.78;4202392;28;20031;-69
2024/01/04 07:00:09;;;;;;;23.23;4.82;;;8.10;99.90;;;7.48;100.00;100376.47;4202364;28;20020;-68
2024/01/04 07:02:11;;;;;;;29.00;4.00;;;8.10;99.90;;;7.50;100.00;100379.78;4202520;28;20086;-68
2024/01/04 07:04:12;;;;;;;23.08;4.40;;;8.10;99.90;;;7.55;100.00;100379.38;4201866;28;20103;-69
2024/01/04 07:06:13;;;;;;;26.02;4.53;;;8.20;99.90;;;7.62;100.00;100372.53;4201900;28;20035;-68
2024/01/04 07:08:14;;;;;;;35.20;5.95;;;8.30;99.90;;;7.68;100.00;100378.03;4202446;28;20036;-69
2024/01/04 07:10:15;;;;;;;30.30;5.72;;;8.30;99.90;;;7.76;100.00;100370.25;4200865;28;20447;-68
2024/01/04 07:12:16;;;;;;;28.67;5.10;;;8.40;99.90;;;7.87;100.00;100371.03;4202274;28;20511;-68
2024/01/04 07:14:17;;;;;;;38.22;5.78;;;8.40;99.90;;;7.95;100.00;100366.69;4201972;28;20025;-68
2024/01/04 07:16:17;;;;;;;36.40;6.22;;;8.50;99.90;;;8.00;100.00;100351.31;4202003;28;20028;-68
2024/01/04 07:18:18;;;;;;;32.97;5.28;;;8.60;99.90;;;8.09;100.00;100346.97;4202291;28;20029;-68
2024/01/04 07:20:19;;;;;;;34.20;4.13;;;8.70;99.90;;;8.14;100.00;100344.72;4202145;28;20032;-68
2024/01/04 07:22:20;;;;;;;30.00;4.00;;;8.70;99.90;;;8.22;100.00;100348.25;4202311;28;20031;-68
2024/01/04 07:24:21;;;;;;;31.60;5.50;;;8.80;99.90;;;8.30;100.00;100347.53;4200685;28;20020;-68
2024/01/04 07:26:22;;;;;;;28.83;5.07;;;8.80;99.90;;;8.32;100.00;100340.31;4202932;28;20012;-68
2024/01/04 07:28:23;;;;;;;24.65;3.95;;;8.90;99.90;;;8.32;100.00;100337.69;4209384;28;20047;-68
2024/01/04 07:30:24;;;;;;;26.48;4.43;;;8.90;99.90;;;8.30;100.00;100331.78;4201824;28;20032;-69
2024/01/04 07:32:25;;;;;;;34.55;5.45;;;9.00;99.90;;;8.35;100.00;100347.91;4201886;28;20511;-69
2024/01/04 07:34:27;;;;;;;27.73;5.13;;;8.90;99.90;;;8.33;100.00;100334.88;4202068;28;20016;-68
2024/01/04 07:36:27;;;;;;;25.13;4.78;;;9.00;99.90;;;8.34;100.00;100338.34;4201738;28;20036;-69
2024/01/04 07:38:28;;;;;;;35.33;5.40;;;9.00;99.90;;;8.34;100.00;100328.66;4201989;28;20024;-68
2024/01/04 07:40:29;;;;;;;32.65;5.65;;;9.00;99.90;;;8.37;100.00;100337.22;4201652;28;20033;-68
2024/01/04 07:42:30;;;;;;;30.05;4.07;;;9.00;99.90;;;8.38;100.00;100339.72;4201156;28;20032;-68
2024/01/04 07:44:31;;;;;;;29.50;5.32;;;9.00;99.90;;;8.41;100.00;100333.31;4201314;28;20017;-68
2024/01/04 07:46:31;;;;;;;26.15;4.60;;;9.00;99.90;;;8.43;100.00;100337.44;4200750;28;20024;-68
2024/01/04 07:48:32;;;;;;;27.58;4.68;;;9.00;99.90;;;8.41;100.00;100331.53;4201778;28;20024;-68
2024/01/04 07:50:33;;;;;;;27.70;4.93;;;9.00;99.90;;;8.40;100.00;100331.66;4200945;28;20017;-68
2024/01/04 07:52:34;;;;;;;25.90;4.28;;;9.00;99.90;;;8.43;100.00;100329.56;4200734;28;20557;-68
2024/01/04 07:54:35;;;;;;;28.55;4.97;;;9.10;99.90;;;8.45;100.00;100327.63;4201596;28;20414;-69
2024/01/04 07:56:36;;;;;;;38.38;6.05;;;9.10;99.90;;;8.50;100.00;100322.72;4201702;28;20031;-68
2024/01/04 07:58:37;;;;;;;24.27;4.50;;;9.10;99.90;;;8.54;100.00;100331.13;4201847;28;20032;-68
2024/01/04 08:00:37;;;;;;;38.70;5.72;;;9.10;99.90;;;8.58;100.00;100322.78;4201541;28;20403;-68
2024/01/04 08:02:39;;;;;;;34.72;4.45;;;9.20;99.90;;;8.58;100.00;100317.50;4201755;28;20024;-68
2024/01/04 08:04:40;;;;;;;28.13;5.35;;;9.20;99.90;;;8.62;100.00;100308.34;4201594;28;20495;-69
2024/01/04 08:06:41;;;;;;;31.73;4.15;;;9.30;99.90;;;8.63;100.00;100302.09;4200642;28;20024;-68
2024/01/04 08:08:42;;;;;;;29.13;5.18;;;9.30;99.90;;;8.70;100.00;100305.78;4200502;28;20032;-68
2024/01/04 08:10:43;;;;;;;37.45;5.25;;;9.30;99.90;;;8.69;100.00;100301.47;4200230;28;20106;-68
2024/01/04 08:12:45;;;;;;;24.10;4.55;;;9.30;99.90;;;8.74;100.00;100303.66;4200429;28;20040;-68
2024/01/04 08:14:46;;;;;;;21.65;5.00;;;9.30;99.90;;;8.71;100.00;100301.34;4201778;28;20025;-68
2024/01/04 08:16:47;;;;;;;33.90;5.70;;;9.40;99.90;;;8.81;100.00;100300.25;4202961;28;20036;-69
2024/01/04 08:18:48;;;;;;;38.97;5.50;;;9.40;99.90;;;8.89;100.00;100295.06;4187185;28;20029;-68
2024/01/04 08:20:49;;;;;;;26.15;4.80;;;9.50;99.90;;;8.94;100.00;100277.97;4204925;28;20020;-69
2024/01/04 08:22:50;;;;;;;23.80;5.00;;;9.50;99.90;;;8.99;100.00;100280.97;4203872;28;20608;-68
2024/01/04 08:24:51;;;;;;;28.60;5.35;;;9.60;99.90;;;8.99;100.00;100276.50;4204945;28;20472;-68